Terminal Aerodrome Forecast
Issued by NWS

Home | Current Version | Previous Version | Text Only | Print | Product List | Glossary On
Versions: 1 2 3 4 5 6 7 8 9 10 11 12 13 14 15 16 17 18 19 20 21 22
109
FTUS45 KFGZ 201130
TAFGCN
TAF
KGCN 201130Z 2012/2112 24005KT P6SM VCSH SCT004 OVC025
      TEMPO 2012/2016 BKN004
     FM201700 23007KT P6SM SCT004 BKN025 BKN250
     FM202330 23004KT P6SM SCT250
     FM210100 VRB05KT P6SM SCT250
      TEMPO 2108/2112 BKN020=

USA.gov is the U.S. government's official web portal to all federal, state and local government web resources and services.